General Aviation Weather

Text Reports

Enter one or more of the following location identifiers separated by a space:

Zip Code, Four-Character ICAO or Three-Character IATA airport codes.

METAR - Aviation Routine Weather Report
- ,
Updated at ():
No METAR is currently available for this location.
TAF - Terminal Area Forecast
- ,
Updated at ():
TAF OENG 032230Z 0400/0506 VRB04KT 6000 FEW030 SCT090
     BECMG 0406/0408 09013KT
     TEMPO 0406/0416 4000 DU SCT030=
Decoded:
ID: OENG   Nejran, SD
REPORT TIME:  3 22:30
VALID TIME: 4 September AT 00:00Z to 5 September AT 06:00Z.
INITIAL WX
   WIND: VARIABLE AT 4
   VISIBILITY: 3.7 MILES
   CLOUDS: 30 FEW
   CLOUDS: 90 SCT
WX BECOMING FROM 06Z TO 08Z
   WINDS: 90 AT 13
TEMPORARY WX FROM 06Z TO 16Z
   VISIBILITY: 2.5 MILES
   WEATHER: DU
   CLOUDS: 30 SCT
   COMMENTS: = 

PIREP - Pilot Weather Report
- ,
Updated at ():
No PIREP is currently available for this location.
AIRMET - Airmens Meteorological Information
- ,
Updated at ():
No AIRMET is currently available for this location.
SIGMET - Significant Meteorological Information
- ,
Updated at ():
No SIGMET is currently available for this location.
NOTAM - Notice to Airmen
- ,
Updated at ():
No NOTAM is currently available for this location.
Forecast Area
- ,
Updated at ():
No NOTAM is currently available for this location.
Aviation Weather Maps